• Join FlightAware (Why Join?)
  • Login
  • US Flag 
08:23PM EDT


 

Airport Tracker/Info


-or-


 

Live Flight TrackerFlight Track Log ✈ CFS692 ✈ 09-May-2013 ✈ KPDX - KRDM

Flight Track Log - Related Links

Times and Time Zones

All times are in EDT time to prevent confusion due to time zone crossing. See the CFS692 flight status page for this flight to view local times or setup timezone preferences in your user account.

Time Position Orientation Groundspeed Altitude Reporting Facility
EDT Latitude Longitude Course Direction KTS MPH feet Rate Location/Type
10:18AM 45.5756 -122.6239 214° Southwest 95 109 700  Level Seattle Center
10:18AM 45.5647 -122.6344 214° Southwest 98 113 1,100 900 Climbing Seattle Center
10:19AM 45.5414 -122.6594 217° Southwest 101 116 2,100 780 Climbing Seattle Center
10:20AM 45.5183 -122.6411 151° Southeast 110 127 2,700 720 Climbing Seattle Center
10:21AM 45.4872 -122.6044 140° Southeast 134 154 3,600 660 Climbing Seattle Center
10:22AM 45.4606 -122.5692 137° Southeast 139 160 4,100 540 Climbing Seattle Center
10:23AM 45.4531 -122.5594 138° Southeast 134 154 4,400 660 Climbing Seattle Center
10:23AM 45.4261 -122.5278 140° Southeast 153 176 4,900 780 Climbing Seattle Center
10:24AM 45.4136 -122.5119 138° Southeast 148 170 5,200 720 Climbing Seattle Center
10:25AM 45.3819 -122.4731 139° Southeast 151 174 6,000 660 Climbing Seattle Center
10:26AM 45.3539 -122.4375 138° Southeast 141 162 6,600 540 Climbing Seattle Center
10:27AM 45.3225 -122.4019 141° Southeast 143 165 7,100 540 Climbing Seattle Center
10:28AM 45.2900 -122.3617 139° Southeast 153 176 7,700 540 Climbing Seattle Center
10:29AM 45.2608 -122.3269 140° Southeast 142 163 8,200 480 Climbing Seattle Center
10:30AM 45.2297 -122.2892 139° Southeast 146 168 8,700 480 Climbing Seattle Center
10:31AM 45.2000 -122.2539 140° Southeast 141 162 9,200 420 Climbing Seattle Center
10:32AM 45.1706 -122.2175 139° Southeast 139 160 9,600 120 Climbing Seattle Center
10:33AM 45.1378 -122.1797 141° Southeast 146 168 9,500 -60 Descending Seattle Center
10:34AM 45.1036 -122.1350 137° Southeast 159 183 9,500  Level Seattle Center
10:35AM 45.0681 -122.0931 140° Southeast 165 190 9,500  Level Seattle Center
10:36AM 45.0328 -122.0503 139° Southeast 166 191 9,500  Level Seattle Center
10:37AM 44.9897 -121.9992 140° Southeast 168 193 9,500  Level Seattle Center
10:38AM 44.9539 -121.9564 140° Southeast 168 193 9,500  Level Seattle Center
10:39AM 44.9181 -121.9153 141° Southeast 167 192 9,500  Level Seattle Center
10:40AM 44.8794 -121.8692 140° Southeast 171 197 9,500  Level Seattle Center
10:41AM 44.8442 -121.8264 139° Southeast 170 196 9,500  Level Seattle Center
10:42AM 44.8075 -121.7842 141° Southeast 170 196 9,500  Level Seattle Center
10:43AM 44.7708 -121.7419 141° Southeast 171 197 9,500  Level Seattle Center
10:44AM 44.7353 -121.7000 140° Southeast 168 193 9,500  Level Seattle Center
10:45AM 44.6994 -121.6569 139° Southeast 169 194 9,500  Level Seattle Center
10:46AM 44.6631 -121.6153 141° Southeast 171 197 9,500  Level Seattle Center
10:47AM 44.6258 -121.5750 142° Southeast 170 196 9,500  Level Seattle Center
10:48AM 44.5889 -121.5328 141° Southeast 171 197 9,500  Level Seattle Center
10:49AM 44.5506 -121.4886 141° Southeast 169 194 9,500 -300 Level Seattle Center
10:50AM 44.5119 -121.4450 141° Southeast 176 203 9,000 -480 Descending Seattle Center
10:51AM 44.4736 -121.3994 140° Southeast 180 207 8,600 -540 Descending Seattle Center
10:52AM 44.4342 -121.3564 142° Southeast 179 206 8,000 -600 Descending Seattle Center